createdAt,value
2023-04-08T00:02:05.173Z,98049.52
2023-04-08T00:04:34.748Z,98050.23
2023-04-08T00:07:06.524Z,98053.38
2023-04-08T00:09:36.218Z,98055.49
2023-04-08T00:12:06.300Z,98058.38
2023-04-08T00:14:36.218Z,98053.14
2023-04-08T00:17:06.235Z,98056.77
2023-04-08T00:19:36.267Z,98058.58
2023-04-08T00:22:07.459Z,98057.65
2023-04-08T00:24:37.144Z,98058.02
2023-04-08T00:27:07.335Z,98062.89
2023-04-08T00:29:37.690Z,98064.15
2023-04-08T00:32:07.725Z,98065.45
2023-04-08T00:34:37.738Z,98066.44
2023-04-08T00:37:07.465Z,98068.11
2023-04-08T00:39:39.272Z,98065.41
2023-04-08T00:42:10.690Z,98069.80
2023-04-08T00:44:40.592Z,98068.76
2023-04-08T00:47:14.198Z,98067.91
2023-04-08T00:49:45.693Z,98068.13
2023-04-08T00:52:15.180Z,98068.71
2023-04-08T00:54:45.811Z,98068.55
2023-04-08T00:57:15.412Z,98069.63
2023-04-08T00:59:45.535Z,98067.66
2023-04-08T01:02:33.207Z,98065.42
2023-04-08T01:05:26.776Z,98062.89
2023-04-08T01:07:58.271Z,98058.56
2023-04-08T01:10:31.333Z,98060.33
2023-04-08T01:13:06.310Z,98061.10
2023-04-08T01:15:39.668Z,98064.13
2023-04-08T01:18:13.879Z,98064.80
2023-04-08T01:20:44.822Z,98062.16
2023-04-08T01:23:25.813Z,98065.27
2023-04-08T01:25:57.666Z,98064.13
2023-04-08T01:28:32.052Z,98063.73
2023-04-08T01:31:04.080Z,98064.38
2023-04-08T01:33:35.679Z,98062.08
2023-04-08T01:36:07.223Z,98062.79
2023-04-08T01:38:40.554Z,98061.19
2023-04-08T01:41:12.045Z,98065.23
2023-04-08T01:43:44.406Z,98063.48
2023-04-08T01:46:16.001Z,98062.37
2023-04-08T01:48:46.654Z,98067.04
2023-04-08T01:51:18.308Z,98068.47
2023-04-08T01:53:48.326Z,98064.29
2023-04-08T01:56:23.394Z,98065.62
2023-04-08T01:58:57.775Z,98064.13
2023-04-08T02:01:30.158Z,98065.31
2023-04-08T02:04:01.551Z,98065.99
2023-04-08T02:06:33.080Z,98067.24
2023-04-08T02:09:02.503Z,98067.80
2023-04-08T02:11:32.197Z,98068.11
2023-04-08T02:14:02.022Z,98067.54
2023-04-08T02:16:56.826Z,98067.77
2023-04-08T02:19:38.537Z,98073.71
2023-04-08T02:22:27.489Z,98069.21
2023-04-08T02:25:00.537Z,98070.61
2023-04-08T02:27:34.657Z,98068.93
2023-04-08T02:30:09.578Z,98070.88
2023-04-08T02:32:39.884Z,98066.45
2023-04-08T02:35:12.328Z,98066.62
2023-04-08T02:37:42.341Z,98072.14
2023-04-08T02:40:25.458Z,98075.09
2023-04-08T02:42:55.840Z,98074.90
2023-04-08T02:45:41.733Z,98072.95
2023-04-08T02:48:11.944Z,98071.27
2023-04-08T02:50:43.449Z,98068.44
2023-04-08T02:53:12.925Z,98068.83
2023-04-08T02:55:43.443Z,98069.00
2023-04-08T02:58:12.889Z,98063.96
2023-04-08T03:00:42.106Z,98059.70
2023-04-08T03:03:15.027Z,98060.23
2023-04-08T03:05:44.622Z,98058.15
2023-04-08T03:08:14.022Z,98057.17
2023-04-08T03:10:43.593Z,98057.77
2023-04-08T03:13:13.912Z,98060.42
2023-04-08T03:15:45.016Z,98060.34
2023-04-08T03:18:14.689Z,98060.05
2023-04-08T03:20:44.215Z,98060.75
2023-04-08T03:23:13.673Z,98061.14
2023-04-08T03:25:44.655Z,98063.61
2023-04-08T03:28:14.414Z,98066.13
2023-04-08T03:30:44.628Z,98069.71
2023-04-08T03:33:14.837Z,98068.25
2023-04-08T03:35:45.584Z,98069.20
2023-04-08T03:38:15.320Z,98074.22
2023-04-08T03:40:45.304Z,98076.21
2023-04-08T03:43:16.526Z,98073.81
2023-04-08T03:45:46.405Z,98080.34
2023-04-08T03:48:16.209Z,98078.94
2023-04-08T03:50:46.315Z,98083.50
2023-04-08T03:53:16.484Z,98083.40
2023-04-08T03:55:53.379Z,98083.13
2023-04-08T03:58:23.694Z,98086.92
2023-04-08T04:00:52.761Z,98088.42
2023-04-08T04:03:23.404Z,98090.05
2023-04-08T04:05:53.455Z,98092.05
2023-04-08T04:08:23.040Z,98095.54
2023-04-08T04:10:52.544Z,98096.45
2023-04-08T04:13:22.362Z,98101.98
2023-04-08T04:15:52.486Z,98103.64
2023-04-08T04:18:22.980Z,98102.16
2023-04-08T04:20:52.686Z,98107.99
2023-04-08T04:23:24.934Z,98109.15
2023-04-08T04:25:56.669Z,98107.70
2023-04-08T04:28:26.041Z,98111.27
2023-04-08T04:30:56.765Z,98109.36
2023-04-08T04:33:27.725Z,98116.37
2023-04-08T04:35:57.640Z,98116.00
2023-04-08T04:38:27.642Z,98117.96
2023-04-08T04:40:58.361Z,98119.52
2023-04-08T04:43:28.967Z,98124.14
2023-04-08T04:45:58.347Z,98123.64
2023-04-08T04:48:28.395Z,98127.55
2023-04-08T04:51:03.612Z,98128.77
2023-04-08T04:53:35.952Z,98128.90
2023-04-08T04:56:06.268Z,98134.05
2023-04-08T04:58:35.791Z,98137.91
2023-04-08T05:01:07.258Z,98139.80
2023-04-08T05:03:37.102Z,98140.27
2023-04-08T05:06:07.526Z,98140.38
2023-04-08T05:08:37.919Z,98145.38
2023-04-08T05:11:11.335Z,98147.75
2023-04-08T05:13:42.103Z,98145.23
2023-04-08T05:16:14.179Z,98147.11
2023-04-08T05:18:43.882Z,98146.08
2023-04-08T05:21:14.558Z,98147.73
2023-04-08T05:23:43.999Z,98151.06
2023-04-08T05:26:15.900Z,98154.80
2023-04-08T05:28:46.624Z,98156.05
2023-04-08T05:31:20.236Z,98156.36
2023-04-08T05:33:50.092Z,98157.13
2023-04-08T05:36:19.584Z,98158.23
2023-04-08T05:38:50.429Z,98162.27
2023-04-08T05:41:20.136Z,98165.83
2023-04-08T05:43:52.610Z,98168.47
2023-04-08T05:46:23.004Z,98171.28
2023-04-08T05:48:53.139Z,98171.56
2023-04-08T05:51:23.410Z,98172.05
2023-04-08T05:53:52.743Z,98175.14
2023-04-08T05:56:23.165Z,98173.52
2023-04-08T05:58:53.689Z,98171.50
2023-04-08T06:01:25.979Z,98174.67
2023-04-08T06:03:59.145Z,98179.30
2023-04-08T06:06:30.728Z,98183.60
2023-04-08T06:09:00.717Z,98181.41
2023-04-08T06:11:31.845Z,98181.20
2023-04-08T06:14:01.800Z,98183.02
2023-04-08T06:16:31.637Z,98184.41
2023-04-08T06:19:01.137Z,98186.17
2023-04-08T06:21:34.117Z,98189.09
2023-04-08T06:24:03.235Z,98190.92
2023-04-08T06:26:33.269Z,98192.48
2023-04-08T06:29:03.657Z,98190.95
2023-04-08T06:31:37.862Z,98189.06
2023-04-08T06:34:07.826Z,98192.58
2023-04-08T06:36:38.223Z,98190.84
2023-04-08T06:39:09.390Z,98191.87
2023-04-08T06:41:42.510Z,98192.37
2023-04-08T06:44:24.458Z,98191.77
2023-04-08T06:46:54.345Z,98189.84
2023-04-08T06:49:25.058Z,98193.63
2023-04-08T06:51:54.643Z,98190.39
2023-04-08T06:54:23.854Z,98186.63
2023-04-08T06:56:53.407Z,98188.88
2023-04-08T06:59:23.602Z,98190.38
2023-04-08T07:01:54.359Z,98193.41
2023-04-08T07:04:25.129Z,98192.20
2023-04-08T07:06:58.175Z,98194.45
2023-04-08T07:09:28.277Z,98192.05
2023-04-08T07:12:00.592Z,98195.05
2023-04-08T07:14:30.341Z,98197.48
2023-04-08T07:16:59.718Z,98198.63
2023-04-08T07:19:30.387Z,98195.23
2023-04-08T07:22:00.434Z,98197.29
2023-04-08T07:24:29.787Z,98201.02
2023-04-08T07:26:59.252Z,98199.84
2023-04-08T07:29:29.424Z,98200.43
2023-04-08T07:32:02.877Z,98201.41
2023-04-08T07:34:32.425Z,98202.77
2023-04-08T07:37:02.010Z,98203.41
2023-04-08T07:39:31.547Z,98203.09
2023-04-08T07:42:01.366Z,98206.70
2023-04-08T07:44:31.203Z,98205.02
2023-04-08T07:47:01.494Z,98209.82
2023-04-08T07:49:32.011Z,98209.48
2023-04-08T07:52:02.335Z,98209.33
2023-04-08T07:54:34.991Z,98207.35
2023-04-08T07:57:05.274Z,98207.38
2023-04-08T07:59:34.680Z,98207.66
2023-04-08T08:02:05.665Z,98206.52
2023-04-08T08:04:36.966Z,98205.33
2023-04-08T08:07:06.880Z,98201.79
2023-04-08T08:09:36.425Z,98200.34
2023-04-08T08:12:06.319Z,98196.74
2023-04-08T08:14:37.151Z,98198.27
2023-04-08T08:17:08.797Z,98197.21
2023-04-08T08:19:38.275Z,98191.13
2023-04-08T08:22:12.508Z,98190.93
2023-04-08T08:24:43.153Z,98188.44
2023-04-08T08:27:12.506Z,98193.13
2023-04-08T08:29:41.993Z,98189.97
2023-04-08T08:32:13.122Z,98190.20
2023-04-08T08:34:43.037Z,98192.23
2023-04-08T08:37:12.505Z,98189.23
2023-04-08T08:39:43.394Z,98190.45
2023-04-08T08:42:22.402Z,98190.79
2023-04-08T08:44:52.095Z,98190.60
2023-04-08T08:47:21.480Z,98188.68
2023-04-08T08:49:51.537Z,98192.23
2023-04-08T08:52:22.123Z,98193.70
2023-04-08T08:55:00.653Z,98196.05
2023-04-08T08:57:30.275Z,98195.99
2023-04-08T09:00:00.755Z,98197.25
2023-04-08T09:02:32.810Z,98199.46
2023-04-08T09:05:04.936Z,98201.32
2023-04-08T09:07:38.080Z,98202.64
2023-04-08T09:10:11.283Z,98200.89
2023-04-08T09:12:56.883Z,98202.34
2023-04-08T09:15:27.851Z,98199.73
2023-04-08T09:17:58.945Z,98202.23
2023-04-08T09:20:28.793Z,98199.84
2023-04-08T09:23:03.183Z,98204.20
2023-04-08T09:25:36.371Z,98206.39
2023-04-08T09:28:06.984Z,98202.41
2023-04-08T09:30:37.418Z,98209.37
2023-04-08T09:33:07.874Z,98209.95
2023-04-08T09:35:37.290Z,98210.55
2023-04-08T09:38:07.544Z,98209.65
2023-04-08T09:40:38.334Z,98212.70
2023-04-08T09:43:10.051Z,98210.77
2023-04-08T09:45:43.321Z,98210.75
2023-04-08T09:48:18.873Z,98207.23
2023-04-08T09:50:52.375Z,98206.98
2023-04-08T09:53:39.464Z,98208.05
2023-04-08T09:56:12.923Z,98208.48
2023-04-08T09:59:01.566Z,98206.52
2023-04-08T10:01:44.735Z,98206.30
2023-04-08T10:04:19.815Z,98207.96
2023-04-08T10:06:56.058Z,98211.92
2023-04-08T10:09:27.737Z,98217.03
2023-04-08T10:11:57.040Z,98212.95
2023-04-08T10:14:29.191Z,98215.12
2023-04-08T10:17:46.975Z,98215.16
2023-04-08T10:20:37.631Z,98214.82
2023-04-08T10:23:14.134Z,98212.09
2023-04-08T10:25:47.130Z,98212.77
2023-04-08T10:28:19.982Z,98210.11
2023-04-08T10:30:54.447Z,98212.92
2023-04-08T10:33:40.632Z,98213.36
2023-04-08T10:36:12.533Z,98218.41
2023-04-08T10:38:43.285Z,98218.95
2023-04-08T10:41:14.676Z,98217.45
2023-04-08T10:43:47.993Z,98221.48
2023-04-08T10:46:18.733Z,98217.66
2023-04-08T10:49:04.214Z,98217.45
2023-04-08T10:51:35.306Z,98215.60
2023-04-08T10:54:15.065Z,98214.52
2023-04-08T10:56:46.969Z,98216.42
2023-04-08T10:59:23.445Z,98215.48
2023-04-08T11:01:52.929Z,98215.65
2023-04-08T11:04:24.351Z,98214.17
2023-04-08T11:06:55.218Z,98221.08
2023-04-08T11:09:25.170Z,98221.23
2023-04-08T11:11:56.065Z,98220.02
2023-04-08T11:14:33.559Z,98220.75
2023-04-08T11:17:06.521Z,98216.71
2023-04-08T11:19:37.813Z,98216.13
2023-04-08T11:22:21.736Z,98212.55
2023-04-08T11:24:52.788Z,98215.48
2023-04-08T11:27:26.322Z,98216.23
2023-04-08T11:29:59.654Z,98214.38
2023-04-08T11:32:34.188Z,98213.00
2023-04-08T11:35:08.251Z,98213.33
2023-04-08T11:37:42.451Z,98215.14
2023-04-08T11:40:13.650Z,98215.45
2023-04-08T11:42:45.046Z,98209.87
2023-04-08T11:45:17.892Z,98210.85
2023-04-08T11:47:49.193Z,98212.48
2023-04-08T11:50:26.112Z,98208.21
2023-04-08T11:53:22.828Z,98207.13
2023-04-08T11:55:52.828Z,98208.89
2023-04-08T11:58:23.324Z,98206.02
2023-04-08T12:00:52.619Z,98203.09
2023-04-08T12:03:23.223Z,98201.41
2023-04-08T12:05:52.547Z,98190.34
2023-04-08T12:08:23.992Z,98190.92
2023-04-08T12:10:54.548Z,98191.21
2023-04-08T12:13:23.810Z,98186.41
2023-04-08T12:15:53.657Z,98185.59
2023-04-08T12:18:23.744Z,98180.28
2023-04-08T12:20:55.291Z,98182.22
2023-04-08T12:23:25.664Z,98181.10
2023-04-08T12:25:54.806Z,98187.81
2023-04-08T12:28:24.349Z,98183.38
2023-04-08T12:30:59.375Z,98185.70
2023-04-08T12:33:29.325Z,98186.98
2023-04-08T12:36:00.981Z,98180.71
2023-04-08T12:38:30.574Z,98182.03
2023-04-08T12:41:00.272Z,98185.08
2023-04-08T12:43:31.149Z,98185.73
2023-04-08T12:46:00.798Z,98187.49
2023-04-08T12:48:30.534Z,98185.54
2023-04-08T12:51:00.328Z,98180.23
2023-04-08T12:53:30.247Z,98182.64
2023-04-08T12:56:00.684Z,98182.11
2023-04-08T12:58:30.173Z,98177.59
2023-04-08T13:00:59.987Z,98176.08
2023-04-08T13:03:32.334Z,98182.52
2023-04-08T13:06:01.896Z,98183.36
2023-04-08T13:08:31.728Z,98177.24
2023-04-08T13:11:01.735Z,98180.81
2023-04-08T13:13:31.842Z,98180.56
2023-04-08T13:16:03.759Z,98178.31
2023-04-08T13:18:34.224Z,98180.64
2023-04-08T13:21:05.062Z,98177.25
2023-04-08T13:23:35.524Z,98175.92
2023-04-08T13:26:07.181Z,98173.06
2023-04-08T13:28:53.599Z,98170.45
2023-04-08T13:31:27.127Z,98169.58
2023-04-08T13:33:58.473Z,98166.58
2023-04-08T13:36:29.331Z,98165.19
2023-04-08T13:38:59.687Z,98166.59
2023-04-08T13:41:30.009Z,98168.70
2023-04-08T13:43:59.742Z,98164.12
2023-04-08T13:46:29.581Z,98161.40
2023-04-08T13:48:59.261Z,98159.66
2023-04-08T13:51:28.636Z,98162.93
2023-04-08T13:53:58.803Z,98159.66
2023-04-08T13:56:28.434Z,98161.38
2023-04-08T13:58:58.193Z,98156.68
2023-04-08T14:01:27.715Z,98155.73
2023-04-08T14:03:58.098Z,98153.90
2023-04-08T14:06:28.359Z,98149.17
2023-04-08T14:08:59.195Z,98155.91
2023-04-08T14:11:28.323Z,98151.77
2023-04-08T14:13:58.284Z,98154.61
2023-04-08T14:16:31.311Z,98156.88
2023-04-08T14:19:01.158Z,98154.07
2023-04-08T14:21:32.341Z,98157.70
2023-04-08T14:24:07.009Z,98159.09
2023-04-08T14:26:37.928Z,98162.80
2023-04-08T14:29:07.415Z,98164.65
2023-04-08T14:31:36.963Z,98161.83
2023-04-08T14:34:07.217Z,98161.84
2023-04-08T14:36:37.272Z,98164.89
2023-04-08T14:39:06.888Z,98164.88
2023-04-08T14:41:36.875Z,98166.33
2023-04-08T14:44:06.186Z,98167.21
2023-04-08T14:46:36.260Z,98167.16
2023-04-08T14:49:07.597Z,98166.79
2023-04-08T14:51:38.426Z,98166.02
2023-04-08T14:54:11.125Z,98167.69
2023-04-08T14:56:40.739Z,98167.89
2023-04-08T14:59:10.897Z,98169.21
2023-04-08T15:01:41.835Z,98169.58
2023-04-08T15:04:11.582Z,98171.41
2023-04-08T15:06:41.496Z,98173.64
2023-04-08T15:09:12.175Z,98172.73
2023-04-08T15:11:42.326Z,98170.84
2023-04-08T15:14:12.599Z,98171.20
2023-04-08T15:16:42.246Z,98169.33
2023-04-08T15:19:12.281Z,98172.99
2023-04-08T15:21:42.217Z,98172.17
2023-04-08T15:24:11.995Z,98170.66
2023-04-08T15:26:43.116Z,98172.54
2023-04-08T15:29:12.888Z,98174.10
2023-04-08T15:31:42.524Z,98171.05
2023-04-08T15:34:12.786Z,98175.40
2023-04-08T15:36:42.347Z,98175.27
2023-04-08T15:39:12.723Z,98176.32
2023-04-08T15:41:42.614Z,98178.50
2023-04-08T15:44:12.202Z,98181.71
2023-04-08T15:46:42.246Z,98183.56
2023-04-08T15:49:13.496Z,98184.35
2023-04-08T15:51:45.196Z,98190.27
2023-04-08T15:54:14.447Z,98191.16
2023-04-08T15:56:47.106Z,98190.48
2023-04-08T15:59:17.248Z,98193.10
2023-04-08T16:01:47.384Z,98193.08
2023-04-08T16:04:18.086Z,98196.88
2023-04-08T16:06:49.267Z,98199.76
2023-04-08T16:09:23.967Z,98199.54
2023-04-08T16:11:54.058Z,98203.86
2023-04-08T16:14:24.192Z,98202.30
2023-04-08T16:16:54.585Z,98203.27
2023-04-08T16:19:23.876Z,98203.59
2023-04-08T16:21:53.814Z,98206.91
2023-04-08T16:24:23.762Z,98207.30
2023-04-08T16:26:53.534Z,98208.27
2023-04-08T16:29:23.455Z,98210.99
2023-04-08T16:31:54.470Z,98208.55
2023-04-08T16:34:26.046Z,98206.67
2023-04-08T16:36:56.989Z,98207.27
2023-04-08T16:39:26.991Z,98214.95
2023-04-08T16:41:57.460Z,98213.48
2023-04-08T16:44:26.475Z,98213.84
2023-04-08T16:46:56.765Z,98218.02
2023-04-08T16:49:26.086Z,98217.80
2023-04-08T16:51:55.529Z,98224.09
2023-04-08T16:54:25.078Z,98222.97
2023-04-08T16:57:00.166Z,98228.05
2023-04-08T16:59:29.833Z,98229.06
2023-04-08T17:01:59.887Z,98229.41
2023-04-08T17:04:29.193Z,98229.14
2023-04-08T17:06:58.589Z,98232.31
2023-04-08T17:09:29.309Z,98233.42
2023-04-08T17:11:58.876Z,98234.24
2023-04-08T17:14:28.906Z,98241.45
2023-04-08T17:16:58.458Z,98237.78
2023-04-08T17:19:27.886Z,98240.88
2023-04-08T17:21:57.246Z,98243.81
2023-04-08T17:24:29.028Z,98248.30
2023-04-08T17:27:00.789Z,98253.77
2023-04-08T17:29:31.500Z,98254.30
2023-04-08T17:32:03.021Z,98254.52
2023-04-08T17:34:33.451Z,98254.84
2023-04-08T17:37:02.457Z,98262.09
2023-04-08T17:39:32.249Z,98263.70
2023-04-08T17:42:02.914Z,98265.24
2023-04-08T17:44:32.493Z,98269.25
2023-04-08T17:47:01.544Z,98271.27
2023-04-08T17:49:31.290Z,98275.70
2023-04-08T17:52:01.073Z,98277.15
2023-04-08T17:54:33.643Z,98285.22
2023-04-08T17:57:03.850Z,98282.59
2023-04-08T17:59:34.369Z,98287.61
2023-04-08T18:02:03.823Z,98289.16
2023-04-08T18:04:33.263Z,98296.77
2023-04-08T18:07:05.938Z,98296.96
2023-04-08T18:09:36.745Z,98297.90
2023-04-08T18:12:07.106Z,98299.54
2023-04-08T18:14:37.494Z,98307.90
2023-04-08T18:17:06.951Z,98309.09
2023-04-08T18:19:37.942Z,98314.66
2023-04-08T18:22:07.963Z,98318.55
2023-04-08T18:24:37.958Z,98317.04
2023-04-08T18:27:09.153Z,98320.82
2023-04-08T18:29:38.661Z,98319.69
2023-04-08T18:32:08.461Z,98319.37
2023-04-08T18:34:40.198Z,98318.59
2023-04-08T18:37:11.587Z,98321.11
2023-04-08T18:39:42.026Z,98321.45
2023-04-08T18:42:11.631Z,98324.94
2023-04-08T18:44:41.580Z,98326.37
2023-04-08T18:47:11.696Z,98324.09
2023-04-08T18:49:41.669Z,98319.77
2023-04-08T18:52:11.227Z,98322.59
2023-04-08T18:54:40.749Z,98323.38
2023-04-08T18:57:11.130Z,98326.30
2023-04-08T18:59:41.240Z,98330.52
2023-04-08T19:02:12.056Z,98331.02
2023-04-08T19:04:44.085Z,98331.44
2023-04-08T19:07:13.372Z,98330.04
2023-04-08T19:09:42.799Z,98332.59
2023-04-08T19:12:13.406Z,98332.16
2023-04-08T19:14:43.863Z,98328.21
2023-04-08T19:17:13.487Z,98327.63
2023-04-08T19:19:47.211Z,98329.96
2023-04-08T19:22:17.394Z,98332.63
2023-04-08T19:24:48.129Z,98333.77
2023-04-08T19:27:17.400Z,98333.70
2023-04-08T19:29:47.654Z,98331.55
2023-04-08T19:32:17.184Z,98333.20
2023-04-08T19:34:47.340Z,98332.45
2023-04-08T19:37:16.661Z,98330.61
2023-04-08T19:39:46.210Z,98334.17
2023-04-08T19:42:15.769Z,98331.52
2023-04-08T19:44:47.897Z,98337.58
2023-04-08T19:47:18.218Z,98333.07
2023-04-08T19:49:48.404Z,98335.71
2023-04-08T19:52:21.040Z,98331.70
2023-04-08T19:54:51.917Z,98334.95
2023-04-08T19:57:21.661Z,98334.55
2023-04-08T19:59:55.701Z,98335.27
2023-04-08T20:02:25.955Z,98329.42
2023-04-08T20:04:57.830Z,98331.64
2023-04-08T20:07:28.070Z,98333.30
2023-04-08T20:09:57.619Z,98336.62
2023-04-08T20:12:27.718Z,98331.48
2023-04-08T20:14:57.392Z,98334.03
2023-04-08T20:17:27.858Z,98330.67
2023-04-08T20:19:59.716Z,98333.30
2023-04-08T20:22:29.245Z,98328.31
2023-04-08T20:25:02.463Z,98333.59
2023-04-08T20:27:32.125Z,98332.45
2023-04-08T20:30:01.707Z,98332.36
2023-04-08T20:32:31.381Z,98331.48
2023-04-08T20:35:01.480Z,98333.21
2023-04-08T20:37:31.246Z,98336.96
2023-04-08T20:40:02.849Z,98338.38
2023-04-08T20:42:32.548Z,98340.81
2023-04-08T20:45:02.210Z,98343.09
2023-04-08T20:47:32.298Z,98345.05
2023-04-08T20:50:02.953Z,98346.94
2023-04-08T20:52:34.795Z,98348.23
2023-04-08T20:55:05.976Z,98349.11
2023-04-08T20:57:35.877Z,98347.77
2023-04-08T21:00:07.062Z,98348.36
2023-04-08T21:02:37.287Z,98354.04
2023-04-08T21:05:07.650Z,98354.31
2023-04-08T21:07:38.964Z,98356.96
2023-04-08T21:10:10.275Z,98358.35
2023-04-08T21:12:40.154Z,98359.11
2023-04-08T21:15:11.064Z,98360.45
2023-04-08T21:17:44.377Z,98362.73
2023-04-08T21:20:13.976Z,98364.19
2023-04-08T21:22:44.621Z,98366.09
2023-04-08T21:25:14.568Z,98366.30
2023-04-08T21:27:44.611Z,98367.98
2023-04-08T21:30:17.311Z,98366.24
2023-04-08T21:32:47.501Z,98373.15
2023-04-08T21:35:16.672Z,98368.73
2023-04-08T21:37:47.055Z,98372.79
2023-04-08T21:40:17.894Z,98371.44
2023-04-08T21:42:47.295Z,98369.81
2023-04-08T21:45:17.415Z,98371.77
2023-04-08T21:47:47.773Z,98373.33
2023-04-08T21:50:18.408Z,98374.62
2023-04-08T21:52:47.766Z,98376.02
2023-04-08T21:55:17.288Z,98373.05
2023-04-08T21:57:47.300Z,98372.79
2023-04-08T22:00:17.394Z,98376.68
2023-04-08T22:02:48.466Z,98378.61
2023-04-08T22:05:18.024Z,98376.67
2023-04-08T22:07:47.321Z,98383.16
2023-04-08T22:10:17.609Z,98385.05
2023-04-08T22:12:48.157Z,98383.10
2023-04-08T22:15:18.583Z,98384.45
2023-04-08T22:17:49.009Z,98381.10
2023-04-08T22:20:19.294Z,98383.48
2023-04-08T22:22:49.042Z,98384.34
2023-04-08T22:25:21.224Z,98387.09
2023-04-08T22:27:52.173Z,98387.63
2023-04-08T22:30:21.817Z,98390.34
2023-04-08T22:32:51.185Z,98393.04
2023-04-08T22:35:20.831Z,98392.59
2023-04-08T22:37:50.676Z,98393.46
2023-04-08T22:40:21.406Z,98390.17
2023-04-08T22:42:50.939Z,98391.19
2023-04-08T22:45:21.689Z,98391.83
2023-04-08T22:47:54.119Z,98388.60
2023-04-08T22:50:24.450Z,98389.94
2023-04-08T22:52:54.892Z,98386.14
2023-04-08T22:55:24.896Z,98387.01
2023-04-08T22:57:54.544Z,98390.25
2023-04-08T23:00:24.985Z,98386.04
2023-04-08T23:02:55.203Z,98384.42
2023-04-08T23:05:25.089Z,98386.81
2023-04-08T23:07:54.794Z,98384.16
2023-04-08T23:10:26.714Z,98385.14
2023-04-08T23:12:56.971Z,98385.36
2023-04-08T23:15:27.090Z,98385.73
2023-04-08T23:17:56.887Z,98384.49
2023-04-08T23:20:26.459Z,98384.23
2023-04-08T23:22:55.557Z,98380.29
2023-04-08T23:25:26.432Z,98382.23
2023-04-08T23:27:55.988Z,98380.13
2023-04-08T23:30:26.786Z,98378.17
2023-04-08T23:32:56.322Z,98374.45
2023-04-08T23:35:26.282Z,98377.58
2023-04-08T23:37:56.472Z,98376.86
2023-04-08T23:40:26.426Z,98375.08
2023-04-08T23:42:55.985Z,98371.84
2023-04-08T23:45:26.004Z,98372.73
2023-04-08T23:47:55.366Z,98369.61
2023-04-08T23:50:25.038Z,98371.06
2023-04-08T23:52:54.240Z,98372.30
2023-04-08T23:55:24.005Z,98371.58
2023-04-08T23:58:00.905Z,98370.43
